Aérodrome :
LOGIN :

S'inscrire | Disclaimer

   EN    FR    IT 

 










Légende :    VFR   VFR Marginal   IFR   IFR Intensif   IFR Très Intensif
Visi : 
Plafond : 
>= 8 km
>= 3000ft
5 à 8 km
1000 à 3000 ft
1500m à 5 km
500 à 1000 ft
800 à 1500m
200 à 500 ft
< 800m
< 200 ft
Symboles :   Orages  Brouillard  Fortes neiges  Fortes précipitations  Vent > 20 kt
SIGMETs :   Divers  Orages  Givrage  Turbulence  Onde Orograph.  Cendres Volcan.







- Altitude de l'aérodrome : 325 ft
- Code IATA : BES
- Voir les cartes d'approche


LFRB - Brest

DERNIER METAR :
  • 171400Z AUTO 30009KT 250V330 9999 BKN028 BKN035 BKN042 21/14 Q1017 NOSIG

METARs EXPIRÉS :
  • 171330Z AUTO 30010KT 250V340 9999 SCT028 BKN033 OVC042 20/13 Q1017 NOSIG
  • 171300Z AUTO 30009KT 270V330 9999 BKN025 BKN036 OVC044 19/13 Q1017 NOSIG
  • 171230Z AUTO 31009KT 280V350 9999 SCT025 BKN033 BKN041 20/13 Q1017 NOSIG
  • 171200Z AUTO 30010KT 270V340 9999 BKN025 BKN044 BKN220 20/13 Q1017 NOSIG
  • 171130Z AUTO 32010KT 300V360 9999 SCT028 20/13 Q1017 NOSIG

TAF TAF LFRB
Valide du 17 à 12h jusqu'au 18 à 18h UTC


171100Z 1712/1818 32010KT 9999 SCT025 SCT030
BECMG 1721/1724 23010KT BKN012
TEMPO 1800/1808 RA OVC005
BECMG 1809/1812 BKN020
ATIS : +33 2 98 32 02 71
Pas de NOTAMs connus pour ce terrain.



MET'MAP, la Météo Aéronautique d'un coup d'oeil ! - Copyright ORBIFLY Décembre 2007 - Disclaimer

ORBIFLY MET'MAP TEAM :

Programmation & Développement : Alexandra Zaïnal
Conception & Développement : Baudouin d'Aumeries
Co-Programmation & Développement : Marc-Olivier Méhu
Soutien technique & logistique : Manuel Goepfert

Contact : metmap@orbifly.com




SOURCES & CREDITS :

   NOAA